Time;durP1;ratioP1;P1;durP2;ratioP2;P2;SDS_P1;SDS_P2;PMS_P1;PMS_P2;Temp;Humidity;BMP_temperature;BMP_pressure;BME280_temperature;BME280_humidity;BME280_pressure;Samples;Min_cycle;Max_cycle;Signal;HPM_P1;HPM_P2
2022/02/12 00:02:15;;;;;;;5.25;1.58;;;;;;;1.70;58.08;98505.72;5032087;28;20085;-60
2022/02/12 00:04:41;;;;;;;6.15;1.80;;;;;;;1.68;58.55;98500.72;5031985;28;20068;-60
2022/02/12 00:07:07;;;;;;;4.28;1.92;;;;;;;1.69;58.60;98502.31;5033527;28;20503;-62
2022/02/12 00:09:33;;;;;;;6.85;1.70;;;;;;;1.50;58.41;98469.97;5033516;28;20096;-59
2022/02/12 00:11:59;;;;;;;5.07;1.85;;;;;;;1.70;58.52;98503.91;5032266;28;20045;-61
2022/02/12 00:14:24;;;;;;;4.75;1.77;;;;;;;1.65;58.47;98506.34;5032056;28;20072;-61
2022/02/12 00:16:50;;;;;;;4.97;1.55;;;;;;;1.66;58.59;98504.53;5015644;28;20041;-62
2022/02/12 00:19:16;;;;;;;5.65;1.70;;;;;;;1.62;59.01;98508.53;5033070;28;20037;-60
2022/02/12 00:21:42;;;;;;;5.28;2.10;;;;;;;1.58;58.99;98511.53;5033176;28;20041;-62
2022/02/12 00:24:07;;;;;;;3.65;1.60;;;;;;;1.61;58.85;98506.94;5032945;28;20077;-60
2022/02/12 00:26:33;;;;;;;7.15;1.92;;;;;;;1.66;58.29;98507.94;5033377;28;20124;-61
2022/02/12 00:28:59;;;;;;;4.38;1.92;;;;;;;1.65;58.81;98501.13;5031761;28;20080;-60
2022/02/12 00:31:25;;;;;;;4.35;1.80;;;;;;;1.63;58.63;98495.28;5033005;28;20095;-61
2022/02/12 00:33:51;;;;;;;5.75;1.73;;;;;;;1.66;58.81;98501.91;5015212;28;20084;-60
2022/02/12 00:36:17;;;;;;;6.07;2.20;;;;;;;1.64;58.88;98499.47;5031885;28;20056;-62
2022/02/12 00:38:43;;;;;;;4.47;1.65;;;;;;;1.63;58.71;98507.53;5015328;28;20450;-62
2022/02/12 00:41:09;;;;;;;3.47;1.52;;;;;;;1.61;58.93;98504.31;5031746;28;20061;-60
2022/02/12 00:43:37;;;;;;;5.95;1.50;;;;;;;1.59;59.00;98501.91;5031851;28;20411;-58
2022/02/12 00:46:03;;;;;;;3.15;1.50;;;;;;;1.59;58.95;98507.16;5032604;28;20578;-60
2022/02/12 00:48:30;;;;;;;1.73;1.30;;;;;;;1.65;58.67;98511.56;5032614;28;20128;-60
2022/02/12 00:50:59;;;;;;;2.75;1.50;;;;;;;1.66;58.62;98502.72;5033101;28;20045;-60
2022/02/12 00:53:26;;;;;;;1.77;1.45;;;;;;;1.70;58.86;98503.09;5032613;28;20048;-59
2022/02/12 00:55:52;;;;;;;2.95;1.58;;;;;;;1.66;58.84;98504.53;5030993;28;20578;-60
2022/02/12 00:58:18;;;;;;;4.43;2.00;;;;;;;1.59;58.70;98507.94;5031312;28;20148;-59
2022/02/12 01:00:44;;;;;;;4.68;1.40;;;;;;;1.59;59.00;98505.31;5014684;28;20076;-60
2022/02/12 01:03:10;;;;;;;4.93;1.80;;;;;;;1.55;59.33;98501.50;5014672;28;20075;-60
2022/02/12 01:05:36;;;;;;;4.45;1.27;;;;;;;1.61;58.94;98505.09;5032595;28;20057;-60
2022/02/12 01:08:03;;;;;;;3.47;1.30;;;;;;;1.55;59.45;98501.50;5032616;28;20041;-60
2022/02/12 01:10:33;;;;;;;2.88;1.40;;;;;;;1.62;58.70;98505.91;5031084;28;20057;-60
2022/02/12 01:12:59;;;;;;;2.35;1.25;;;;;;;1.62;59.14;98505.91;5032309;28;20573;-60
2022/02/12 01:15:25;;;;;;;2.97;1.40;;;;;;;1.59;58.72;98505.31;5032558;28;20049;-61
2022/02/12 01:17:51;;;;;;;5.15;1.42;;;;;;;1.57;59.13;98514.38;5014504;28;20095;-62
2022/02/12 01:20:17;;;;;;;2.70;1.42;;;;;;;1.58;59.25;98514.16;5032209;28;20069;-61
2022/02/12 01:22:43;;;;;;;3.00;1.50;;;;;;;1.53;59.63;98502.69;5031980;28;20033;-61
2022/02/12 01:25:10;;;;;;;2.38;1.30;;;;;;;1.46;59.48;98513.13;5031773;28;20053;-61
2022/02/12 01:27:36;;;;;;;2.00;1.38;;;;;;;1.48;59.81;98515.56;5031823;28;20171;-63
2022/02/12 01:30:04;;;;;;;4.18;1.30;;;;;;;1.39;60.31;98519.38;5032250;28;20106;-62
2022/02/12 01:32:30;;;;;;;1.98;1.42;;;;;;;1.41;60.16;98514.75;5014179;28;20099;-61
2022/02/12 01:34:56;;;;;;;3.70;1.70;;;;;;;1.43;59.91;98520.59;5031940;28;20049;-60
2022/02/12 01:37:23;;;;;;;3.22;1.77;;;;;;;1.45;60.40;98513.34;5031821;28;20041;-61
2022/02/12 01:39:50;;;;;;;3.47;1.30;;;;;;;1.43;60.04;98521.38;5030675;28;20120;-61
2022/02/12 01:42:16;;;;;;;1.65;1.55;;;;;;;1.32;60.68;98528.00;5031764;28;20041;-62
2022/02/12 01:44:42;;;;;;;5.88;1.65;;;;;;;1.34;60.55;98526.00;5013936;28;20041;-61
2022/02/12 01:47:10;;;;;;;4.50;1.80;;;;;;;1.36;60.31;98520.59;5013968;28;20091;-61
2022/02/12 01:49:36;;;;;;;4.60;1.80;;;;;;;1.33;60.61;98513.94;5030540;28;20053;-61
2022/02/12 01:52:06;;;;;;;2.92;1.73;;;;;;;1.34;60.89;98522.56;5031606;28;20507;-61
2022/02/12 01:54:32;;;;;;;2.50;1.67;;;;;;;1.34;60.35;98509.53;5030204;28;20045;-61
2022/02/12 01:57:00;;;;;;;8.52;2.42;;;;;;;1.38;61.01;98517.75;5031887;28;20045;-61
2022/02/12 01:59:26;;;;;;;6.93;2.15;;;;;;;1.37;60.37;98514.34;5031533;28;20543;-60
2022/02/12 02:01:53;;;;;;;4.60;1.90;;;;;;;1.36;60.93;98517.97;5031352;28;20148;-61
2022/02/12 02:04:19;;;;;;;6.95;2.92;;;;;;;1.34;60.75;98517.34;5013688;28;20120;-61
2022/02/12 02:06:47;;;;;;;5.70;2.70;;;;;;;1.27;61.25;98525.19;5029538;28;20042;-62
2022/02/12 02:09:17;;;;;;;4.53;1.95;;;;;;;1.26;61.76;98522.75;5031269;28;20098;-62
2022/02/12 02:11:43;;;;;;;5.40;2.20;;;;;;;1.28;61.77;98516.34;5030197;28;20503;-61
2022/02/12 02:14:10;;;;;;;6.25;2.20;;;;;;;1.31;61.76;98529.00;5031531;28;20080;-61
2022/02/12 02:16:37;;;;;;;5.57;2.03;;;;;;;1.33;62.46;98534.03;5031498;28;20052;-59
2022/02/12 02:19:04;;;;;;;5.95;2.13;;;;;;;1.30;62.72;98537.03;5029969;28;20050;-62
2022/02/12 02:21:31;;;;;;;5.85;1.70;;;;;;;1.29;62.64;98546.66;5031439;28;20048;-59
2022/02/12 02:23:57;;;;;;;5.88;2.10;;;;;;;1.31;63.36;98542.06;5031249;28;20393;-61
2022/02/12 02:26:22;;;;;;;4.13;1.92;;;;;;;1.31;62.91;98539.44;5031089;28;20052;-60
2022/02/12 02:28:48;;;;;;;4.43;2.13;;;;;;;1.37;62.92;98543.06;5031182;28;20077;-61
2022/02/12 02:31:14;;;;;;;4.07;1.80;;;;;;;1.42;63.51;98548.50;5031066;28;20049;-59
2022/02/12 02:33:40;;;;;;;4.38;1.92;;;;;;;1.39;63.19;98548.91;5013470;28;20561;-61
2022/02/12 02:36:06;;;;;;;7.35;2.58;;;;;;;1.41;63.57;98551.31;5013617;28;20052;-60
2022/02/12 02:38:31;;;;;;;6.97;1.92;;;;;;;1.27;64.00;98546.06;5031143;28;20045;-61
2022/02/12 02:40:58;;;;;;;3.63;1.95;;;;;;;1.36;64.28;98555.31;5031337;28;20069;-61
2022/02/12 02:43:24;;;;;;;4.90;1.80;;;;;;;1.35;64.00;98561.56;5029733;28;20041;-61
2022/02/12 02:45:51;;;;;;;5.78;1.85;;;;;;;1.39;64.02;98564.56;5029539;28;20045;-61
2022/02/12 02:48:19;;;;;;;2.88;1.58;;;;;;;1.40;63.90;98560.94;5013489;28;20041;-61
2022/02/12 02:56:18;;;;;;;6.32;1.70;;;;;;;1.39;64.18;98577.63;5029877;28;20045;-61
2022/02/12 02:58:45;;;;;;;3.53;1.80;;;;;;;1.38;64.34;98569.97;5030005;28;20068;-58
2022/02/12 03:01:19;;;;;;;3.85;1.92;;;;;;;1.25;64.87;98581.22;5013097;28;20067;-61
2022/02/12 03:03:50;;;;;;;4.13;1.75;;;;;;;1.27;65.21;98576.59;5029775;28;20072;-62
2022/02/12 03:06:17;;;;;;;5.90;1.70;;;;;;;1.33;65.43;98581.03;5031075;28;20069;-61
2022/02/12 03:08:43;;;;;;;4.82;2.05;;;;;;;1.34;65.89;98585.25;5031013;28;20042;-62
2022/02/12 03:11:10;;;;;;;4.82;1.60;;;;;;;1.36;66.53;98588.47;4996887;28;20045;-61
2022/02/12 03:13:36;;;;;;;2.75;1.50;;;;;;;1.38;66.75;98589.06;5030848;28;20045;-61
2022/02/12 03:16:02;;;;;;;7.85;2.38;;;;;;;1.40;66.75;98583.66;5029744;28;20049;-60
2022/02/12 03:18:28;;;;;;;3.00;2.03;;;;;;;1.42;67.34;98586.88;5030558;28;20442;-61
2022/02/12 03:20:54;;;;;;;4.95;2.00;;;;;;;1.41;67.44;98585.25;5033114;28;20045;-60
2022/02/12 03:23:20;;;;;;;4.53;1.70;;;;;;;1.29;67.97;98585.03;5033046;28;20049;-61
2022/02/12 03:25:46;;;;;;;6.20;1.55;;;;;;;1.26;68.45;98581.00;5034518;28;20063;-60
2022/02/12 03:28:12;;;;;;;4.82;1.92;;;;;;;1.21;68.47;98583.41;5033326;28;20128;-62
2022/02/12 03:30:45;;;;;;;6.95;2.08;;;;;;;1.17;68.29;98586.59;5016594;28;20045;-61
2022/02/12 03:33:12;;;;;;;3.13;1.58;;;;;;;1.17;68.28;98581.38;5017087;28;20450;-61
2022/02/12 03:35:39;;;;;;;6.45;1.80;;;;;;;1.16;68.93;98590.22;5016564;28;20418;-61
2022/02/12 03:38:16;;;;;;;3.13;1.80;;;;;;;1.18;68.50;98601.25;5033052;28;20041;-62
2022/02/12 03:40:44;;;;;;;4.28;2.13;;;;;;;1.13;68.70;98600.03;5032906;28;20095;-61
2022/02/12 03:43:11;;;;;;;3.17;1.65;;;;;;;1.05;68.69;98600.22;5033933;28;20080;-61
2022/02/12 03:45:37;;;;;;;2.38;1.65;;;;;;;1.04;69.09;98603.03;5033726;28;20064;-60
2022/02/12 03:48:03;;;;;;;3.78;1.85;;;;;;;1.06;68.92;98596.63;5033887;28;20099;-62
2022/02/12 03:50:31;;;;;;;2.85;2.00;;;;;;;1.06;69.20;98595.78;5034186;28;20514;-62
2022/02/12 03:53:01;;;;;;;3.08;1.90;;;;;;;1.09;68.92;98593.63;5032791;28;20040;-61
2022/02/12 03:55:27;;;;;;;3.13;1.90;;;;;;;1.07;68.56;98593.00;5034086;28;20531;-58
2022/02/12 03:57:54;;;;;;;3.03;1.33;;;;;;;0.86;69.24;98598.34;5033610;28;20045;-60
2022/02/12 04:00:20;;;;;;;8.57;2.03;;;;;;;0.90;69.63;98589.13;5033508;28;20484;-61
2022/02/12 04:02:47;;;;;;;7.38;2.17;;;;;;;1.00;69.18;98594.78;5015963;28;20049;-61
2022/02/12 04:05:14;;;;;;;4.18;1.95;;;;;;;1.05;69.42;98604.63;5033583;28;20508;-61
2022/02/12 04:07:42;;;;;;;3.47;1.60;;;;;;;1.03;69.04;98593.56;5032367;28;20057;-60
2022/02/12 04:10:13;;;;;;;3.00;1.70;;;;;;;0.85;69.10;98589.72;5033591;28;20122;-60
2022/02/12 04:12:39;;;;;;;5.53;1.95;;;;;;;0.85;69.47;98588.88;5015816;28;20053;-62
2022/02/12 04:15:05;;;;;;;3.65;1.98;;;;;;;0.91;69.02;98601.16;5032182;28;20052;-59
2022/02/12 04:17:35;;;;;;;3.10;1.80;;;;;;;0.88;69.06;98597.16;5033273;28;20525;-61
2022/02/12 04:20:03;;;;;;;5.85;2.05;;;;;;;0.87;69.65;98605.16;5032293;28;20045;-60
2022/02/12 04:22:33;;;;;;;2.15;1.65;;;;;;;0.80;69.13;98601.72;5033170;28;20042;-61
2022/02/12 04:25:01;;;;;;;5.32;2.25;;;;;;;0.80;69.56;98607.75;5032092;28;20049;-61
2022/02/12 04:27:28;;;;;;;5.00;2.40;;;;;;;0.76;69.42;98614.31;5031777;28;20542;-61
2022/02/12 04:29:56;;;;;;;4.68;1.80;;;;;;;0.73;69.96;98606.88;5014773;28;20056;-61
2022/02/12 04:32:22;;;;;;;5.07;1.90;;;;;;;0.70;69.57;98611.69;5031639;28;20096;-60
2022/02/12 04:34:52;;;;;;;5.03;1.85;;;;;;;0.63;69.94;98620.28;5032949;28;20046;-61
2022/02/12 04:37:19;;;;;;;3.33;1.90;;;;;;;0.55;69.92;98617.81;5032699;28;20125;-61
2022/02/12 04:39:45;;;;;;;5.93;2.03;;;;;;;0.47;70.20;98612.75;5031590;28;20061;-60
2022/02/12 04:42:11;;;;;;;3.30;1.75;;;;;;;0.39;70.77;98615.53;5032635;28;20140;-61
2022/02/12 04:44:41;;;;;;;8.50;1.90;;;;;;;0.31;70.85;98620.88;5032588;28;20059;-60
2022/02/12 04:47:07;;;;;;;3.93;2.10;;;;;;;0.20;71.27;98619.59;5032886;28;20037;-61
2022/02/12 04:49:36;;;;;;;3.95;1.77;;;;;;;0.16;71.05;98616.56;5031237;28;20046;-61
2022/02/12 04:52:04;;;;;;;4.32;1.95;;;;;;;0.09;71.11;98620.09;5031180;28;20037;-60
2022/02/12 04:54:29;;;;;;;4.43;2.17;;;;;;;0.03;71.79;98624.28;5032610;28;20051;-61
2022/02/12 04:56:55;;;;;;;3.45;1.92;;;;;;;0.05;71.54;98637.13;5032604;28;20120;-62
2022/02/12 04:59:21;;;;;;;6.30;2.65;;;;;;;-0.02;71.69;98635.25;5030983;28;20366;-61
2022/02/12 05:01:50;;;;;;;9.27;3.05;;;;;;;-0.08;71.90;98635.22;5031040;28;20058;-62
2022/02/12 05:04:17;;;;;;;5.13;2.70;;;;;;;-0.16;71.81;98637.94;5032547;28;20087;-61
2022/02/12 05:06:42;;;;;;;6.60;2.40;;;;;;;-0.14;72.02;98641.97;5014531;28;20451;-62
2022/02/12 05:09:09;;;;;;;8.15;2.72;;;;;;;-0.04;71.75;98641.66;5014819;28;20038;-61
2022/02/12 05:11:35;;;;;;;4.80;2.20;;;;;;;0.05;71.46;98647.53;5031396;28;20045;-61
2022/02/12 05:14:01;;;;;;;6.53;2.20;;;;;;;0.07;71.59;98640.34;5031052;28;20428;-63
2022/02/12 05:16:26;;;;;;;9.20;2.40;;;;;;;0.07;71.38;98643.75;5032398;28;20041;-61
2022/02/12 05:18:54;;;;;;;2.42;1.50;;;;;;;0.14;71.32;98649.00;5031002;28;20051;-59
2022/02/12 05:21:19;;;;;;;5.60;2.50;;;;;;;0.22;71.16;98647.09;5032490;28;20054;-61
2022/02/12 05:23:47;;;;;;;4.55;2.20;;;;;;;0.31;70.84;98655.56;5032055;28;20045;-60
2022/02/12 05:26:13;;;;;;;5.35;2.50;;;;;;;0.36;70.35;98652.41;5030775;28;20052;-61
2022/02/12 05:28:38;;;;;;;9.82;2.85;;;;;;;0.47;70.36;98659.69;5032283;28;20045;-61
2022/02/12 05:31:04;;;;;;;6.72;2.22;;;;;;;0.48;69.78;98658.72;5030814;28;20049;-61
2022/02/12 05:33:30;;;;;;;9.85;2.25;;;;;;;0.42;70.11;98662.88;5032117;28;20446;-61
2022/02/12 05:35:56;;;;;;;5.13;2.22;;;;;;;0.42;70.17;98662.09;5032168;28;20479;-61
2022/02/12 05:38:21;;;;;;;3.72;2.50;;;;;;;0.49;69.60;98667.34;5030444;28;20049;-63
2022/02/12 05:40:47;;;;;;;4.53;2.40;;;;;;;0.60;69.84;98670.22;5030596;28;20048;-61
2022/02/12 05:43:13;;;;;;;3.88;2.30;;;;;;;0.65;69.48;98673.06;5031694;28;20071;-63
2022/02/12 05:45:41;;;;;;;4.57;2.15;;;;;;;0.62;69.63;98668.25;5031468;28;20049;-59
2022/02/12 05:48:07;;;;;;;9.05;2.80;;;;;;;0.36;70.00;98674.06;5030429;28;20039;-61
2022/02/12 05:50:33;;;;;;;5.45;2.33;;;;;;;0.29;70.09;98675.81;5030497;28;20049;-61
2022/02/12 05:52:59;;;;;;;3.03;1.92;;;;;;;0.34;70.45;98676.06;5030568;28;20041;-62
2022/02/12 05:55:25;;;;;;;6.53;2.35;;;;;;;0.38;70.15;98673.88;5013860;28;20041;-61
2022/02/12 05:57:58;;;;;;;5.55;2.20;;;;;;;0.31;69.95;98676.44;5030548;28;20407;-61
2022/02/12 06:00:25;;;;;;;5.32;2.55;;;;;;;0.43;69.29;98674.13;5030370;28;20128;-62
2022/02/12 06:02:51;;;;;;;7.10;2.95;;;;;;;0.52;69.04;98672.97;5031616;28;20167;-62
2022/02/12 06:05:17;;;;;;;3.67;2.00;;;;;;;0.49;69.22;98685.59;5030011;28;20096;-61
2022/02/12 06:07:43;;;;;;;4.35;3.00;;;;;;;0.57;69.45;98691.47;5030178;28;20079;-63
2022/02/12 06:10:10;;;;;;;8.70;3.50;;;;;;;0.58;69.87;98697.50;5030142;28;20084;-61
2022/02/12 06:12:37;;;;;;;3.95;2.60;;;;;;;0.55;70.63;98688.25;5030515;28;20407;-62
2022/02/12 06:15:04;;;;;;;5.40;2.67;;;;;;;0.37;70.20;98696.53;5030243;28;20071;-61
2022/02/12 06:17:30;;;;;;;16.85;3.13;;;;;;;0.23;70.41;98698.22;5030219;28;20049;-60
2022/02/12 06:19:56;;;;;;;4.20;2.45;;;;;;;0.29;70.90;98698.47;5030009;28;20487;-62
2022/02/12 06:22:26;;;;;;;8.13;2.65;;;;;;;0.16;70.75;98705.19;5031003;28;20119;-62
2022/02/12 06:24:52;;;;;;;2.58;1.48;;;;;;;0.14;69.68;98707.16;5031391;28;20052;-62
2022/02/12 06:27:17;;;;;;;3.95;2.10;;;;;;;0.23;68.74;98711.25;5013709;28;20045;-62
2022/02/12 06:29:43;;;;;;;3.78;1.80;;;;;;;0.23;69.23;98713.03;5031424;28;20103;-60
2022/02/12 06:32:09;;;;;;;7.47;1.88;;;;;;;0.39;67.62;98717.22;5031306;28;20440;-61
2022/02/12 06:34:35;;;;;;;3.58;1.73;;;;;;;0.54;67.11;98717.94;5019121;28;20132;-63
2022/02/12 06:37:01;;;;;;;2.00;1.80;;;;;;;0.43;65.13;98716.63;5011156;28;20041;-62
2022/02/12 06:39:27;;;;;;;2.50;1.90;;;;;;;0.49;64.61;98715.06;5010313;28;20042;-60
2022/02/12 06:41:54;;;;;;;3.22;1.67;;;;;;;0.35;65.15;98715.97;5011033;28;20042;-61
2022/02/12 06:44:19;;;;;;;3.35;1.92;;;;;;;0.45;65.14;98709.44;5011090;28;20050;-61
2022/02/12 06:46:45;;;;;;;5.50;1.83;;;;;;;0.42;64.23;98714.22;5011032;28;20088;-60
2022/02/12 06:49:11;;;;;;;6.40;2.25;;;;;;;0.48;64.66;98716.09;5009536;28;20085;-61
2022/02/12 06:51:36;;;;;;;3.03;1.38;;;;;;;0.53;65.26;98715.50;5010916;28;20522;-61
2022/02/12 06:54:03;;;;;;;5.10;2.90;;;;;;;0.71;64.41;98715.03;5012669;28;20041;-61
2022/02/12 06:56:29;;;;;;;4.90;2.75;;;;;;;0.75;63.83;98724.91;5014848;28;20626;-61
2022/02/12 06:58:55;;;;;;;6.55;3.00;;;;;;;0.81;63.53;98724.13;5015005;28;20120;-62
2022/02/12 07:01:23;;;;;;;4.25;2.20;;;;;;;0.88;63.89;98725.00;5014657;28;20061;-61
2022/02/12 07:03:48;;;;;;;9.10;3.22;;;;;;;1.07;63.40;98720.88;5014147;28;20067;-62
2022/02/12 07:06:14;;;;;;;5.72;2.83;;;;;;;0.86;63.78;98726.19;5013103;28;20050;-62
2022/02/12 07:08:40;;;;;;;6.57;3.13;;;;;;;1.00;63.54;98725.28;5014406;28;20053;-63
2022/02/12 07:11:05;;;;;;;6.50;2.70;;;;;;;1.17;63.35;98732.78;5014666;28;20042;-61
2022/02/12 07:13:31;;;;;;;3.20;2.45;;;;;;;1.42;63.17;98738.34;4996725;28;20045;-61
2022/02/12 07:16:00;;;;;;;5.70;3.10;;;;;;;1.36;62.14;98742.53;5014546;28;20169;-61
2022/02/12 07:18:26;;;;;;;3.40;1.95;;;;;;;1.22;62.46;98740.84;5012805;28;20053;-60
2022/02/12 07:20:51;;;;;;;3.90;1.90;;;;;;;1.12;62.16;98752.44;5014163;28;20038;-63
2022/02/12 07:23:17;;;;;;;2.83;1.70;;;;;;;0.79;62.51;98720.91;5014501;28;20045;-62
2022/02/12 07:25:43;;;;;;;3.90;1.60;;;;;;;1.02;61.81;98761.59;5014389;28;20680;-61
2022/02/12 07:28:08;;;;;;;5.07;2.42;;;;;;;1.01;61.72;98773.06;5014490;28;20042;-62
2022/02/12 07:30:34;;;;;;;2.45;1.50;;;;;;;0.96;62.49;98760.56;5014465;28;20049;-59
2022/02/12 07:33:00;;;;;;;2.17;1.42;;;;;;;0.80;62.62;98764.28;5012701;28;20196;-63
2022/02/12 07:35:26;;;;;;;2.25;1.42;;;;;;;0.79;61.85;98765.25;4996263;28;20407;-63
2022/02/12 07:37:52;;;;;;;6.40;1.80;;;;;;;0.97;61.41;98767.41;5013494;28;20034;-64
2022/02/12 07:40:18;;;;;;;4.90;2.35;;;;;;;1.15;61.74;98795.66;5012412;28;20516;-62
2022/02/12 07:42:46;;;;;;;1.88;1.30;;;;;;;0.68;65.54;98808.34;5012630;28;20483;-61
2022/02/12 07:45:13;;;;;;;3.08;1.10;;;;;;;0.41;65.21;98817.72;5012528;28;20407;-61
2022/02/12 07:47:40;;;;;;;1.60;1.20;;;;;;;0.07;65.15;98800.13;5014047;28;20042;-61
2022/02/12 07:50:07;;;;;;;4.10;1.17;;;;;;;0.01;64.60;98807.88;4995715;28;20081;-62
2022/02/12 07:52:34;;;;;;;2.03;1.40;;;;;;;0.08;64.02;98809.53;5013869;28;20046;-62
2022/02/12 07:55:00;;;;;;;3.15;1.50;;;;;;;0.13;63.55;98814.22;4979835;28;20092;-62
2022/02/12 07:57:26;;;;;;;2.72;1.58;;;;;;;0.06;63.57;98814.16;5012627;28;20125;-63
2022/02/12 07:59:52;;;;;;;3.88;2.33;;;;;;;0.07;62.79;98810.53;5013790;28;20523;-62
2022/02/12 08:02:19;;;;;;;3.70;2.03;;;;;;;0.14;61.94;98821.03;5013379;28;20065;-62
2022/02/12 08:04:45;;;;;;;4.85;2.50;;;;;;;0.13;61.83;98833.25;4994161;28;20443;-62
2022/02/12 08:12:54;;;;;;;5.40;3.10;;;;;;;0.40;61.50;98838.75;5012416;28;20050;-63
2022/02/12 08:15:20;;;;;;;6.72;3.45;;;;;;;0.52;60.74;98839.88;5012364;28;20073;-62
2022/02/12 08:17:46;;;;;;;6.35;3.25;;;;;;;0.38;60.77;98814.66;4979834;28;20038;-64
2022/02/12 08:20:12;;;;;;;8.88;4.30;;;;;;;0.60;59.31;98846.78;4995916;28;20101;-62
2022/02/12 08:22:38;;;;;;;4.78;2.50;;;;;;;0.57;59.26;98850.56;4995938;28;20030;-64
2022/02/12 08:25:04;;;;;;;3.30;2.40;;;;;;;0.39;58.80;98848.38;5013287;28;20076;-61
2022/02/12 08:27:30;;;;;;;5.03;2.80;;;;;;;0.08;60.10;98848.63;4996069;28;20046;-62
2022/02/12 08:29:57;;;;;;;10.20;3.13;;;;;;;0.08;60.13;98866.06;4995789;28;20049;-60
2022/02/12 08:32:23;;;;;;;3.25;2.08;;;;;;;-0.19;60.15;98862.34;5013270;28;20056;-64
2022/02/12 08:34:50;;;;;;;3.75;2.25;;;;;;;-0.24;60.66;98866.28;5012006;28;20054;-62
2022/02/12 08:37:17;;;;;;;5.70;3.00;;;;;;;-0.11;60.60;98870.06;5013288;28;20034;-62
2022/02/12 08:39:43;;;;;;;2.97;1.80;;;;;;;0.06;59.18;98868.88;5013075;28;20046;-62
2022/02/12 08:42:09;;;;;;;3.42;2.83;;;;;;;0.22;59.60;98860.81;5013216;28;20038;-62
2022/02/12 08:44:35;;;;;;;3.53;2.42;;;;;;;0.12;57.82;98867.31;5011879;28;20049;-61
2022/02/12 08:47:02;;;;;;;7.88;3.65;;;;;;;0.34;57.85;98862.97;4995394;28;20088;-63
2022/02/12 08:49:29;;;;;;;4.22;3.30;;;;;;;0.45;56.91;98872.91;5011854;28;20108;-61
2022/02/12 08:51:55;;;;;;;4.85;1.83;;;;;;;0.65;56.35;98873.91;4995402;28;20061;-63
2022/02/12 08:54:21;;;;;;;4.03;1.95;;;;;;;0.79;55.24;98864.41;5012958;28;20045;-64
2022/02/12 08:56:46;;;;;;;9.50;2.08;;;;;;;1.28;55.12;98868.81;5011621;28;20038;-61
2022/02/12 08:59:13;;;;;;;4.63;1.98;;;;;;;1.64;53.99;98880.91;5012657;28;20096;-61
2022/02/12 09:01:40;;;;;;;3.38;1.63;;;;;;;1.77;52.50;98886.22;5011471;28;20069;-63
2022/02/12 09:04:10;;;;;;;2.47;1.55;;;;;;;1.61;53.06;98885.72;5012974;28;20048;-61
2022/02/12 09:06:37;;;;;;;3.45;1.55;;;;;;;1.41;52.54;98885.56;4995879;28;20064;-63
2022/02/12 09:09:08;;;;;;;3.22;1.80;;;;;;;1.28;53.30;98876.66;5011738;28;20048;-63
2022/02/12 09:11:37;;;;;;;3.90;1.60;;;;;;;1.39;52.78;98888.41;5012684;28;20069;-63
2022/02/12 09:14:03;;;;;;;4.07;2.22;;;;;;;1.41;51.74;98890.81;5011802;28;20037;-63
2022/02/12 09:16:29;;;;;;;2.75;1.73;;;;;;;1.31;51.16;98896.38;5012349;28;20099;-62
2022/02/12 09:18:55;;;;;;;5.63;2.85;;;;;;;1.31;50.06;98901.59;5011503;28;20120;-63
2022/02/12 09:21:23;;;;;;;1.77;1.67;;;;;;;1.39;48.73;98908.50;5012242;28;20052;-62
2022/02/12 09:23:50;;;;;;;1.48;1.20;;;;;;;1.32;48.28;98904.03;5011525;28;20034;-62
2022/02/12 09:26:18;;;;;;;3.88;1.88;;;;;;;1.18;47.94;98906.69;5012030;28;20136;-62
2022/02/12 09:28:44;;;;;;;2.63;1.58;;;;;;;1.13;48.04;98900.25;5011834;28;20095;-62
2022/02/12 09:31:09;;;;;;;4.38;1.60;;;;;;;1.12;48.18;98906.47;5012217;28;20447;-60
2022/02/12 09:33:35;;;;;;;2.30;1.35;;;;;;;1.08;47.57;98899.19;5012222;28;20042;-61
2022/02/12 09:36:01;;;;;;;2.72;1.20;;;;;;;1.29;47.48;98906.19;5011024;28;20495;-61
2022/02/12 09:38:28;;;;;;;3.47;1.73;;;;;;;1.44;47.73;98913.94;5010740;28;20129;-63
2022/02/12 09:40:55;;;;;;;3.88;2.47;;;;;;;1.64;47.86;98911.47;4994828;28;20048;-62
2022/02/12 09:43:23;;;;;;;4.32;2.47;;;;;;;1.57;46.71;98920.06;4978368;28;20049;-63
2022/02/12 09:46:27;;;;;;;6.30;1.38;;;;;;;1.17;47.50;98913.72;5012224;28;20056;-62
2022/02/12 09:48:54;;;;;;;3.83;1.60;;;;;;;1.07;47.86;98910.63;5011702;28;20075;-62
2022/02/12 09:51:24;;;;;;;4.10;1.83;;;;;;;1.22;47.37;98916.56;5011876;28;20523;-61
2022/02/12 09:53:51;;;;;;;3.10;2.33;;;;;;;1.11;46.88;98910.06;5011943;28;20046;-61
2022/02/12 09:56:18;;;;;;;4.75;3.05;;;;;;;1.16;46.14;98924.38;4995011;28;20506;-62
2022/02/12 09:58:44;;;;;;;4.05;1.70;;;;;;;1.27;45.60;98923.84;5012138;28;20038;-60
2022/02/12 10:01:10;;;;;;;3.28;1.52;;;;;;;1.26;45.40;98925.63;5011528;28;20149;-61
2022/02/12 10:03:38;;;;;;;1.25;1.10;;;;;;;1.44;44.95;98925.22;5012000;28;20124;-62
2022/02/12 10:06:04;;;;;;;2.47;1.42;;;;;;;1.39;44.64;98924.97;5011951;28;20050;-61
2022/02/12 10:08:30;;;;;;;2.42;1.30;;;;;;;1.62;44.02;98929.94;5011400;28;20073;-64
2022/02/12 10:10:56;;;;;;;2.10;1.20;;;;;;;1.49;44.25;98919.41;5009915;28;20503;-61
2022/02/12 10:13:28;;;;;;;3.40;1.50;;;;;;;1.62;43.15;98926.50;5009941;28;20056;-62
2022/02/12 10:15:55;;;;;;;1.50;1.40;;;;;;;1.68;43.75;98936.22;5011381;28;20065;-61
2022/02/12 10:18:23;;;;;;;1.50;1.30;;;;;;;1.62;43.44;98929.94;5009966;28;20499;-63
2022/02/12 10:20:49;;;;;;;2.85;1.50;;;;;;;1.66;43.22;98925.16;5011844;28;20058;-61
2022/02/12 10:23:17;;;;;;;2.45;1.40;;;;;;;1.61;44.42;98932.75;5010135;28;20507;-61
2022/02/12 10:26:04;;;;;;;1.63;1.52;;;;;;;1.76;43.89;98928.22;5011335;28;20137;-61
2022/02/12 10:28:35;;;;;;;2.17;1.15;;;;;;;1.57;45.12;98930.50;5009864;28;20050;-61
2022/02/12 10:31:02;;;;;;;2.33;1.50;;;;;;;1.40;45.10;98929.19;5032862;28;20053;-62
2022/02/12 10:33:30;;;;;;;4.60;1.88;;;;;;;1.32;45.82;98929.31;5033764;28;20057;-60
2022/02/12 10:35:58;;;;;;;1.63;1.40;;;;;;;1.08;46.34;98933.13;5033819;28;20103;-63
2022/02/12 10:38:29;;;;;;;2.60;1.90;;;;;;;0.94;46.80;98923.53;5027527;28;20506;-64
2022/02/12 10:41:09;;;;;;;4.38;1.98;;;;;;;0.85;46.10;98918.47;5034544;28;20535;-63
2022/02/12 10:43:36;;;;;;;1.80;1.40;;;;;;;0.88;46.76;98925.09;5033655;28;20045;-61
2022/02/12 10:46:03;;;;;;;2.60;1.80;;;;;;;0.80;47.56;98922.63;5016868;28;20135;-62
2022/02/12 10:48:37;;;;;;;4.95;2.00;;;;;;;0.88;47.49;98923.31;5035928;28;20041;-63
2022/02/12 10:51:15;;;;;;;6.10;2.50;;;;;;;0.97;47.26;98921.41;5034905;28;20068;-61
2022/02/12 10:54:09;;;;;;;6.72;3.33;;;;;;;1.04;46.92;98924.84;5034079;28;20041;-62
2022/02/12 10:56:50;;;;;;;6.40;3.88;;;;;;;1.03;47.26;98935.47;5034259;28;20057;-62
2022/02/12 10:59:24;;;;;;;4.97;2.60;;;;;;;0.89;46.79;98924.94;5033029;28;20053;-64
2022/02/12 11:01:52;;;;;;;3.95;2.28;;;;;;;0.81;47.85;98937.28;5034270;28;20084;-61
2022/02/12 11:04:18;;;;;;;4.75;2.30;;;;;;;0.78;48.03;98932.44;5033307;28;20050;-59
2022/02/12 11:06:46;;;;;;;7.18;3.22;;;;;;;0.67;47.90;98928.50;5034219;28;20275;-62
2022/02/12 11:09:13;;;;;;;12.63;4.45;;;;;;;0.67;48.12;98925.88;5032124;28;20042;-60
2022/02/12 11:11:39;;;;;;;15.65;6.13;;;;;;;0.79;48.15;98921.78;5016764;28;20133;-62
2022/02/12 11:14:08;;;;;;;6.80;2.90;;;;;;;1.19;47.29;98942.25;5032937;28;20068;-60
2022/02/12 11:16:36;;;;;;;13.57;5.85;;;;;;;1.57;46.53;98943.56;5016597;28;20042;-60
2022/02/12 11:19:04;;;;;;;6.88;2.72;;;;;;;1.79;46.17;98943.50;5033930;28;20116;-60
2022/02/12 11:21:30;;;;;;;8.63;3.38;;;;;;;1.91;46.25;98942.00;5032704;28;20170;-61
2022/02/12 11:24:03;;;;;;;7.32;2.05;;;;;;;2.20;46.09;98947.97;5033748;28;20520;-62
2022/02/12 11:26:39;;;;;;;6.47;1.90;;;;;;;2.42;45.92;98946.88;5034052;28;20073;-59
2022/02/12 11:29:33;;;;;;;4.78;2.78;;;;;;;2.30;45.20;98952.88;5032706;28;20419;-62
2022/02/12 11:32:14;;;;;;;3.47;1.70;;;;;;;2.05;44.97;98961.97;5033812;28;20041;-63
2022/02/12 11:34:43;;;;;;;3.83;2.35;;;;;;;2.00;46.02;98963.53;5033889;28;20049;-62
2022/02/12 11:37:16;;;;;;;2.53;1.40;;;;;;;1.90;45.56;98966.50;5033716;28;20045;-60
2022/02/12 11:40:14;;;;;;;4.95;2.55;;;;;;;1.95;46.07;98974.59;4999382;28;20136;-62
2022/02/12 11:42:46;;;;;;;3.28;1.85;;;;;;;1.82;47.22;98977.09;5033647;28;20111;-61
2022/02/12 11:45:33;;;;;;;5.47;1.83;;;;;;;1.45;48.05;98973.81;5032430;28;20053;-60
2022/02/12 11:48:25;;;;;;;4.18;1.95;;;;;;;1.23;47.95;98975.63;5033843;28;20049;-61
2022/02/12 11:51:02;;;;;;;7.10;2.30;;;;;;;0.98;48.43;98969.97;5032453;28;20511;-61
2022/02/12 11:53:35;;;;;;;4.75;2.10;;;;;;;0.89;48.75;98978.94;5031782;28;20046;-62
2022/02/12 11:56:14;;;;;;;3.00;2.03;;;;;;;0.75;49.43;98991.00;5032421;28;20075;-60